Terminal Aerodrome Forecast
Issued by NWS North Platte, NE

Home | Current Version | Previous Version | Graphics & Text | Print | Product List | Glossary On
Versions: 1 2 3 4 5 6 7 8 9 10 11 12 13 14 15
000
FTUS43 KLBF 201737
TAFVTN
TAF
KVTN 201737Z 2018/2118 06012KT P6SM FEW250
     FM210200 07007KT P6SM FEW140
     FM211000 10004KT P6SM BKN120
     FM211200 10004KT P6SM BKN080
     FM211500 12006KT P6SM BKN025=

USA.gov is the U.S. government's official web portal to all federal, state and local government web resources and services.